This is the latest recevied weather packets stored in our database for station/object ED1ZAI-13. If no packets are shown the sender has not sent any weather packets the latest 1 day(s).
| Time | Temp. | Humidity | Pressure | Rain* | Wind** | Luminosity | Snow |
|---|---|---|---|---|---|---|---|
| 1778035294 | 4.44° C | 77% | 1011.1 hPa | 0 mm | 0 m/s | - | - |
| 1778034693 | 4.44° C | 76% | 1011.2 hPa | 0 mm | 0 m/s | - | - |
| 1778034095 | 5° C | 74% | 1011.2 hPa | 0 mm | 0 m/s | - | - |
| 1778033494 | 5.56° C | 74% | 1011.2 hPa | 0 mm | 0 m/s | - | - |
| 1778032894 | 5.56° C | 75% | 1011.2 hPa | 0 mm | 0 m/s | - | - |
| 1778032292 | 5.56° C | 75% | 1011.2 hPa | 0 mm | 0 m/s | - | - |
| 1778031692 | 5° C | 78% | 1011.3 hPa | 0 mm | 0 m/s | - | - |
| 1778031093 | 5.56° C | 74% | 1011.1 hPa | 0 mm | 0 m/s | - | - |
| 1778030493 | 6.11° C | 74% | 1011.1 hPa | 0 mm | 0 m/s | - | - |
| 1778029893 | 5.56° C | 76% | 1011.1 hPa | 0 mm | 0 m/s | - | - |
| 1778029292 | 5.56° C | 76% | 1011.2 hPa | 0 mm | 0 m/s | - | - |
| 1778028693 | 5.56° C | 75% | 1011.2 hPa | 0 mm | 0 m/s | - | - |
| 1778028093 | 5° C | 76% | 1011.4 hPa | 0 mm | 0 m/s | - | - |
| 1778027493 | 5° C | 77% | 1011.5 hPa | 0 mm | 0 m/s | - | - |
| 1778026892 | 5° C | 74% | 1011.4 hPa | 0 mm | 0 m/s | - | - |
| 1778026292 | 7.22° C | 68% | 1011.3 hPa | 0 mm | 0 m/s | - | - |
| 1778025692 | 7.22° C | 68% | 1011.4 hPa | 0 mm | 0 m/s | - | - |
| 1778025092 | 7.22° C | 69% | 1011.4 hPa | 0 mm | 0 m/s | - | - |
| 1778024493 | 6.67° C | 69% | 1011.4 hPa | 0 mm | 0 m/s | - | - |
| 1778023893 | 7.22° C | 68% | 1011.4 hPa | 0 mm | 0 m/s | - | - |
| 1778023293 | 7.22° C | 67% | 1011.5 hPa | 0 mm | 0 m/s | - | - |
| 1778022693 | 7.78° C | 66% | 1011.5 hPa | 0 mm | 0 m/s | - | - |
| 1778022092 | 7.78° C | 66% | 1011.6 hPa | 0 mm | 0 m/s | - | - |
| 1778021492 | 7.22° C | 67% | 1011.6 hPa | 0 mm | 0 m/s | - | - |
| 1778020892 | 7.78° C | 66% | 1011.5 hPa | 0 mm | 0 m/s | - | - |
* Rain latest hour (hover to see other rain measurements)
** Current wind speed in m/s (hover to see current wind gust speed)